Time;durP1;ratioP1;P1;durP2;ratioP2;P2;SDS_P1;SDS_P2;PMS_P1;PMS_P2;Temp;Humidity;BMP_temperature;BMP_pressure;BME280_temperature;BME280_humidity;BME280_pressure;Samples;Min_cycle;Max_cycle;Signal;HPM_P1;HPM_P2
2023/02/11 00:01:41;;;;;;;55.97;28.92;;;;;;;1.70;81.46;100438.44;5052375;28;20029;-81
2023/02/11 00:04:07;;;;;;;65.85;33.67;;;;;;;1.57;82.51;100426.66;5051190;28;20041;-81
2023/02/11 00:06:34;;;;;;;64.97;34.60;;;;;;;1.55;82.79;100408.41;5025838;28;20493;-81
2023/02/11 00:08:59;;;;;;;68.32;34.22;;;;;;;1.33;82.64;100416.75;5052171;28;20032;-82
2023/02/11 00:11:29;;;;;;;66.82;32.05;;;;;;;1.73;81.50;100418.88;5056095;28;20383;-82
2023/02/11 00:13:56;;;;;;;65.80;34.63;;;;;;;1.63;82.34;100434.78;5053570;28;20025;-81
2023/02/11 00:16:21;;;;;;;72.97;35.85;;;;;;;1.41;82.43;100411.56;5050365;28;20025;-82
2023/02/11 00:18:47;;;;;;;65.90;36.13;;;;;;;1.74;81.91;100410.00;5037691;28;20032;-82
2023/02/11 00:21:16;;;;;;;65.30;33.50;;;;;;;1.65;81.50;100401.22;5035699;28;20036;-82
2023/02/11 00:23:41;;;;;;;67.97;33.92;;;;;;;1.74;82.15;100392.41;5051684;28;20043;-82
2023/02/11 00:26:18;;;;;;;66.80;34.67;;;;;;;1.86;81.56;100392.97;5055833;28;20388;-81
2023/02/11 00:28:45;;;;;;;64.85;35.15;;;;;;;1.64;82.65;100382.97;5053500;28;20044;-81
2023/02/11 00:31:11;;;;;;;68.85;32.53;;;;;;;1.80;81.70;100375.19;5054814;28;20048;-81
2023/02/11 00:33:36;;;;;;;72.03;33.38;;;;;;;1.90;81.76;100373.28;5047396;28;20033;-81
2023/02/11 00:36:04;;;;;;;69.68;34.72;;;;;;;1.53;82.15;100369.06;5049384;28;21853;-81
2023/02/11 00:38:29;;;;;;;66.03;34.65;;;;;;;1.15;83.96;100365.97;5034957;28;20049;-80
2023/02/11 00:40:55;;;;;;;65.97;32.92;;;;;;;1.58;83.56;100380.94;5053808;28;20063;-82
2023/02/11 00:43:20;;;;;;;66.70;36.20;;;;;;;1.32;84.00;100354.59;5018015;28;20025;-82
2023/02/11 00:45:46;;;;;;;57.38;31.40;;;;;;;1.74;82.69;100360.00;5046050;28;20524;-81
2023/02/11 00:48:11;;;;;;;57.03;31.38;;;;;;;1.99;81.63;100359.16;5047976;28;20073;-81
2023/02/11 00:50:36;;;;;;;61.30;32.22;;;;;;;1.94;81.84;100357.03;5051331;28;20041;-82
2023/02/11 00:53:02;;;;;;;67.03;34.80;;;;;;;1.80;82.88;100354.13;5031824;28;20029;-81
2023/02/11 00:55:27;;;;;;;72.05;35.42;;;;;;;1.60;83.33;100376.34;5033618;28;20650;-82
2023/02/11 00:57:52;;;;;;;64.30;32.28;;;;;;;1.76;83.19;100371.19;5051516;28;20041;-82
2023/02/11 01:00:18;;;;;;;64.18;33.15;;;;;;;1.87;82.32;100384.94;5049635;28;20464;-81
2023/02/11 01:02:43;;;;;;;62.78;32.75;;;;;;;1.71;82.71;100361.13;5030481;28;20025;-82
2023/02/11 01:05:08;;;;;;;58.75;29.58;;;;;;;1.85;82.07;100360.59;5036271;28;20484;-82
2023/02/11 01:07:34;;;;;;;64.07;33.08;;;;;;;1.77;82.75;100371.03;5035051;28;20032;-82
2023/02/11 01:09:59;;;;;;;74.85;36.28;;;;;;;2.01;82.23;100391.44;5049774;28;20081;-82
2023/02/11 01:12:25;;;;;;;67.07;34.58;;;;;;;1.85;82.10;100383.44;5045173;28;20029;-82
2023/02/11 01:14:50;;;;;;;69.38;33.33;;;;;;;2.06;82.06;100397.06;5049630;28;20107;-81
2023/02/11 01:17:16;;;;;;;61.47;33.60;;;;;;;2.14;81.57;100392.66;5050696;28;20481;-82
2023/02/11 01:19:42;;;;;;;65.88;32.63;;;;;;;2.06;82.02;100395.25;5051657;28;20390;-83
2023/02/11 01:22:07;;;;;;;70.90;35.80;;;;;;;2.02;82.14;100386.00;5031289;28;20029;-81
2023/02/11 01:24:33;;;;;;;70.03;35.13;;;;;;;1.93;82.84;100376.41;5047205;28;20033;-83
2023/02/11 01:26:58;;;;;;;66.13;34.58;;;;;;;1.92;81.70;100353.69;5029586;28;20051;-81
2023/02/11 01:29:23;;;;;;;70.40;34.63;;;;;;;2.10;81.67;100364.97;5052632;28;20075;-82
2023/02/11 01:31:49;;;;;;;65.63;35.15;;;;;;;1.80;83.55;100369.91;5055902;28;20087;-82
2023/02/11 01:34:14;;;;;;;72.30;36.58;;;;;;;1.73;83.35;100364.44;5047824;28;20037;-81
2023/02/11 01:36:40;;;;;;;66.65;34.42;;;;;;;2.00;82.52;100363.47;5043190;28;20029;-82
2023/02/11 01:39:07;;;;;;;66.15;34.90;;;;;;;2.13;82.10;100366.47;5041099;28;20040;-82
2023/02/11 01:41:33;;;;;;;59.60;30.40;;;;;;;2.05;82.12;100356.72;5048245;28;20102;-82
2023/02/11 01:44:21;;;;;;;63.97;32.88;;;;;;;1.98;82.84;100358.34;5035455;28;20025;-82
2023/02/11 01:46:46;;;;;;;66.07;33.97;;;;;;;1.98;82.46;100366.25;5043329;28;21105;-80
2023/02/11 01:49:17;;;;;;;58.92;32.53;;;;;;;1.93;83.20;100365.88;5054157;28;20052;-82
2023/02/11 01:51:46;;;;;;;66.22;32.50;;;;;;;1.84;83.75;100371.25;5046781;28;20033;-83
2023/02/11 01:57:23;;;;;;;70.78;33.13;;;;;;;1.89;83.56;100361.09;5044160;28;20660;-82
2023/02/11 01:59:57;;;;;;;69.93;32.40;;;;;;;1.96;83.28;100370.84;5052308;28;22354;-81
2023/02/11 02:02:47;;;;;;;69.40;35.88;;;;;;;1.92;83.66;100369.47;5050832;28;20084;-82
2023/02/11 02:05:32;;;;;;;76.72;38.33;;;;;;;1.84;83.39;100364.19;5048001;28;20491;-82
2023/02/11 02:08:16;;;;;;;68.50;36.15;;;;;;;1.82;83.84;100389.00;5052399;28;20044;-83
2023/02/11 02:10:46;;;;;;;69.35;36.92;;;;;;;2.07;82.99;100393.44;5050251;28;20833;-81
2023/02/11 02:13:11;;;;;;;65.18;33.78;;;;;;;2.10;82.81;100364.16;5040762;28;20029;-81
2023/02/11 02:15:40;;;;;;;66.13;33.50;;;;;;;2.26;81.88;100362.44;5056794;28;20033;-81
2023/02/11 02:18:21;;;;;;;75.28;38.25;;;;;;;2.04;83.14;100351.63;5054864;28;20025;-81
2023/02/11 02:20:59;;;;;;;67.18;33.65;;;;;;;2.14;82.53;100347.09;5049474;28;20084;-82
2023/02/11 02:23:51;;;;;;;77.57;36.10;;;;;;;2.16;82.46;100360.91;5047597;28;20484;-82
2023/02/11 02:26:38;;;;;;;67.60;36.03;;;;;;;2.13;82.81;100348.06;5032266;28;20423;-81
2023/02/11 02:29:24;;;;;;;73.07;35.10;;;;;;;2.19;82.40;100358.78;5047111;28;21240;-82
2023/02/11 02:32:13;;;;;;;73.75;35.78;;;;;;;2.15;82.57;100346.91;5047648;28;20067;-81
2023/02/11 02:34:49;;;;;;;83.63;39.08;;;;;;;2.05;83.25;100342.75;5054052;28;20039;-80
2023/02/11 02:37:23;;;;;;;;;;;;;;;2.11;82.64;100339.47;5051908;28;20456;-81
2023/02/11 02:39:49;;;;;;;76.75;38.80;;;;;;;2.10;83.25;100328.13;5047168;28;19916;-81
2023/02/11 02:42:17;;;;;;;76.60;36.90;;;;;;;2.18;82.61;100324.72;5049429;28;20043;-82
2023/02/11 02:44:51;;;;;;;74.45;38.65;;;;;;;2.03;83.10;100324.47;5045225;28;20033;-81
2023/02/11 02:47:16;;;;;;;78.80;39.47;;;;;;;2.01;83.53;100330.91;5036671;28;20040;-81
2023/02/11 02:49:41;;;;;;;78.15;38.25;;;;;;;2.18;82.78;100332.59;5056011;28;20549;-81
2023/02/11 02:52:31;;;;;;;70.10;36.75;;;;;;;2.31;82.23;100314.56;5048659;28;20088;-82
2023/02/11 02:55:01;;;;;;;72.47;37.80;;;;;;;2.04;82.51;100304.22;5048983;28;20354;-82
2023/02/11 02:57:50;;;;;;;72.90;37.08;;;;;;;2.19;82.01;100332.44;5050917;28;20123;-82
2023/02/11 03:00:37;;;;;;;77.20;39.47;;;;;;;2.10;83.07;100351.81;5033124;28;20036;-81
2023/02/11 03:03:24;;;;;;;76.57;36.47;;;;;;;2.04;83.67;100351.63;5069264;28;20041;-82
2023/02/11 03:06:20;;;;;;;71.22;38.03;;;;;;;1.90;83.31;100325.91;5064489;28;20025;-81
2023/02/11 03:08:53;;;;;;;79.10;37.47;;;;;;;2.20;82.81;100338.53;5052901;28;20025;-81
2023/02/11 03:11:20;;;;;;;78.63;41.47;;;;;;;2.08;83.13;100329.25;5065313;28;20033;-81
2023/02/11 03:13:48;;;;;;;74.40;37.05;;;;;;;2.12;82.99;100327.94;5051066;28;20115;-81
2023/02/11 03:16:26;;;;;;;74.75;39.60;;;;;;;2.24;82.20;100311.72;5059838;28;20373;-82
2023/02/11 03:19:02;;;;;;;83.68;41.80;;;;;;;2.04;83.49;100304.22;5034882;28;20047;-81
2023/02/11 03:21:31;;;;;;;66.35;36.47;;;;;;;2.05;83.96;100290.09;5057789;28;20151;-83
2023/02/11 03:24:01;;;;;;;78.45;38.15;;;;;;;2.11;83.25;100289.44;5052482;28;20048;-81
2023/02/11 03:26:52;;;;;;;77.65;39.80;;;;;;;2.17;82.93;100275.63;5054402;28;20032;-82
2023/02/11 03:29:42;;;;;;;74.40;39.75;;;;;;;2.01;84.53;100279.03;5052431;28;20029;-81
2023/02/11 03:32:21;;;;;;;71.82;37.65;;;;;;;1.85;84.82;100257.09;5052895;28;20075;-81
2023/02/11 03:35:20;;;;;;;89.28;43.50;;;;;;;1.77;85.72;100265.75;5053949;28;20548;-81
2023/02/11 03:37:54;;;;;;;77.35;39.30;;;;;;;1.81;85.86;100276.81;5050895;28;20041;-81
2023/02/11 03:40:28;;;;;;;83.22;41.92;;;;;;;1.33;87.98;100277.38;5040342;28;20036;-82
2023/02/11 03:42:58;;;;;;;85.13;39.20;;;;;;;1.27;88.27;100277.97;5046622;28;20491;-80
2023/02/11 03:45:26;;;;;;;85.05;41.42;;;;;;;1.47;87.65;100271.53;5052786;28;20059;-81
2023/02/11 03:47:58;;;;;;;79.97;39.08;;;;;;;1.40;88.52;100287.09;5040224;28;20028;-81
2023/02/11 03:50:26;;;;;;;96.13;45.72;;;;;;;1.13;90.05;100284.63;5057853;28;20020;-81
2023/02/11 03:52:54;;;;;;;82.38;39.10;;;;;;;1.45;88.13;100274.31;5054528;28;20029;-82
2023/02/11 03:55:24;;;;;;;89.15;43.65;;;;;;;1.13;89.20;100276.75;5052525;28;20025;-81
2023/02/11 03:57:50;;;;;;;93.65;43.63;;;;;;;1.27;88.63;100291.94;5035031;28;20035;-81
2023/02/11 04:00:16;;;;;;;86.22;42.78;;;;;;;1.74;86.52;100288.94;5053023;28;20036;-81
2023/02/11 04:02:42;;;;;;;79.15;40.17;;;;;;;1.72;86.79;100283.03;5040473;28;20403;-81
2023/02/11 04:05:11;;;;;;;74.40;38.03;;;;;;;1.78;86.30;100275.31;5055155;28;20035;-80
2023/02/11 04:07:36;;;;;;;76.38;40.70;;;;;;;1.56;87.24;100281.13;5049762;28;20474;-82
2023/02/11 04:10:02;;;;;;;79.72;40.85;;;;;;;1.24;89.46;100273.03;5049207;28;20025;-82
2023/02/11 04:12:28;;;;;;;74.68;37.38;;;;;;;1.85;86.06;100246.56;5028874;28;20075;-81
2023/02/11 04:14:53;;;;;;;84.28;41.78;;;;;;;1.92;85.22;100268.66;5027327;28;20493;-81
2023/02/11 04:17:18;;;;;;;73.25;35.05;;;;;;;2.11;84.54;100260.47;5049319;28;20033;-81
2023/02/11 04:19:44;;;;;;;76.15;38.22;;;;;;;2.13;84.87;100276.94;5043740;28;20561;-81
2023/02/11 04:22:09;;;;;;;79.60;38.53;;;;;;;1.96;85.34;100264.72;5051850;28;20045;-81
2023/02/11 04:24:35;;;;;;;71.40;38.53;;;;;;;2.25;83.38;100265.13;5036842;28;20120;-81
2023/02/11 04:27:00;;;;;;;72.68;36.65;;;;;;;2.34;83.33;100266.00;5045786;28;20112;-81
2023/02/11 04:29:27;;;;;;;68.28;36.15;;;;;;;2.26;83.49;100272.06;5045749;28;20098;-82
2023/02/11 04:31:52;;;;;;;68.50;35.50;;;;;;;2.36;83.07;100264.03;5049275;28;20051;-81
2023/02/11 04:34:18;;;;;;;70.05;34.30;;;;;;;2.38;83.04;100276.03;5042608;28;20045;-81
2023/02/11 04:36:43;;;;;;;70.03;34.40;;;;;;;2.20;83.71;100270.06;5045720;28;20025;-82
2023/02/11 04:39:08;;;;;;;74.65;38.67;;;;;;;2.11;84.14;100273.66;5038493;28;20025;-81
2023/02/11 04:41:34;;;;;;;83.82;38.97;;;;;;;2.11;83.99;100269.22;5046216;28;20025;-80
2023/02/11 04:43:59;;;;;;;62.75;32.58;;;;;;;2.46;82.77;100289.22;5029099;28;20031;-81
2023/02/11 04:46:24;;;;;;;72.60;35.03;;;;;;;2.37;83.37;100292.00;5050414;28;20063;-81
2023/02/11 04:48:50;;;;;;;71.78;35.17;;;;;;;2.30;83.89;100283.91;5045366;28;20029;-81
2023/02/11 04:51:16;;;;;;;75.63;37.20;;;;;;;2.28;83.16;100280.63;5049048;28;20021;-81
2023/02/11 04:53:41;;;;;;;71.20;34.47;;;;;;;2.37;83.20;100292.00;5048242;28;20025;-81
2023/02/11 04:56:07;;;;;;;75.55;35.42;;;;;;;2.48;82.78;100294.34;5054635;28;20036;-81
2023/02/11 04:58:33;;;;;;;63.63;35.83;;;;;;;2.41;82.99;100277.50;5050725;28;20366;-81
2023/02/11 05:01:06;;;;;;;72.15;37.03;;;;;;;2.39;83.18;100295.28;5046764;28;20055;-83
2023/02/11 05:03:32;;;;;;;68.22;35.63;;;;;;;2.41;83.53;100296.78;5051992;28;20025;-81
2023/02/11 05:05:57;;;;;;;65.45;37.10;;;;;;;2.39;83.01;100282.94;5032635;28;20033;-81
2023/02/11 05:08:22;;;;;;;74.32;36.92;;;;;;;2.29;83.00;100282.28;5030330;28;20052;-81
2023/02/11 05:10:48;;;;;;;74.72;37.22;;;;;;;2.36;82.78;100293.00;5034583;28;20067;-82
2023/02/11 05:13:13;;;;;;;71.20;35.70;;;;;;;2.30;83.68;100276.00;5048096;28;20043;-81
2023/02/11 05:15:38;;;;;;;69.65;36.25;;;;;;;2.31;83.36;100287.38;5046621;28;20071;-81
2023/02/11 05:18:04;;;;;;;71.57;37.28;;;;;;;2.22;84.20;100271.56;5044681;28;20064;-82
2023/02/11 05:20:29;;;;;;;68.80;36.88;;;;;;;2.25;83.94;100265.94;5049560;28;20055;-82
2023/02/11 05:22:54;;;;;;;73.15;36.75;;;;;;;2.36;83.94;100285.09;5035662;28;20028;-82
2023/02/11 05:25:20;;;;;;;68.63;34.50;;;;;;;2.35;84.36;100286.91;5046614;28;20032;-82
2023/02/11 05:27:45;;;;;;;64.30;32.90;;;;;;;2.43;83.48;100280.81;5052986;28;20033;-82
2023/02/11 05:30:11;;;;;;;74.35;38.22;;;;;;;2.38;83.13;100280.50;5050536;28;20037;-82
2023/02/11 05:32:36;;;;;;;66.72;33.90;;;;;;;2.36;84.31;100300.91;5022163;28;20138;-82
2023/02/11 05:35:02;;;;;;;69.45;36.15;;;;;;;2.41;83.63;100307.31;5054352;28;20033;-81
2023/02/11 05:37:27;;;;;;;68.45;35.75;;;;;;;2.28;84.39;100288.50;5031892;28;20417;-81
2023/02/11 05:39:52;;;;;;;71.18;35.63;;;;;;;2.27;84.54;100292.16;5053254;28;20046;-81
2023/02/11 05:42:18;;;;;;;70.90;36.85;;;;;;;2.48;83.44;100292.53;5049078;28;20108;-81
2023/02/11 05:44:43;;;;;;;71.20;34.00;;;;;;;2.56;83.12;100289.91;5037013;28;20063;-81
2023/02/11 05:47:08;;;;;;;60.33;32.63;;;;;;;2.55;83.23;100288.28;5042937;28;20087;-81
2023/02/11 05:49:34;;;;;;;73.75;35.38;;;;;;;2.32;83.94;100281.94;5049124;28;20112;-81
2023/02/11 05:51:59;;;;;;;72.72;34.35;;;;;;;2.53;83.71;100292.88;5050968;28;20132;-81
2023/02/11 05:54:25;;;;;;;67.72;34.92;;;;;;;2.48;83.54;100291.69;5056756;28;20025;-82
2023/02/11 05:56:50;;;;;;;71.82;34.95;;;;;;;2.56;83.26;100299.63;5049142;28;20068;-82
2023/02/11 05:59:16;;;;;;;75.75;36.05;;;;;;;2.54;83.64;100288.41;5053108;28;20035;-81
2023/02/11 06:01:41;;;;;;;71.30;34.15;;;;;;;2.43;84.43;100279.00;5050175;28;20061;-81
2023/02/11 06:04:07;;;;;;;72.65;35.92;;;;;;;2.41;84.25;100257.28;5050631;28;20036;-82
2023/02/11 06:06:32;;;;;;;70.00;37.78;;;;;;;2.38;84.32;100259.41;5051933;28;20455;-82
2023/02/11 06:08:58;;;;;;;67.32;35.30;;;;;;;2.45;84.31;100268.28;5054414;28;20028;-81
2023/02/11 06:11:23;;;;;;;74.55;36.95;;;;;;;2.41;84.37;100264.34;5053907;28;20082;-81
2023/02/11 06:13:50;;;;;;;70.43;36.40;;;;;;;2.49;84.34;100283.63;5053483;28;20458;-81
2023/02/11 06:16:15;;;;;;;72.78;36.47;;;;;;;2.48;84.17;100274.09;5048908;28;20040;-81
2023/02/11 06:18:41;;;;;;;69.28;35.60;;;;;;;2.37;85.37;100289.38;5052489;28;20534;-81
2023/02/11 06:21:07;;;;;;;73.05;38.50;;;;;;;2.31;85.28;100292.66;5036081;28;20043;-81
2023/02/11 06:23:33;;;;;;;71.68;36.13;;;;;;;2.39;85.77;100301.41;5053730;28;20663;-81
2023/02/11 06:26:03;;;;;;;65.95;34.42;;;;;;;2.35;85.08;100283.44;5055140;28;20489;-81
2023/02/11 06:28:30;;;;;;;82.03;39.65;;;;;;;2.39;85.58;100293.50;5049070;28;20484;-82
2023/02/11 06:30:56;;;;;;;68.63;33.63;;;;;;;2.45;85.16;100282.31;5049990;28;20444;-81
2023/02/11 06:33:21;;;;;;;64.30;34.25;;;;;;;2.40;85.51;100273.25;5057197;28;20033;-83
2023/02/11 06:35:47;;;;;;;66.25;35.70;;;;;;;2.47;84.95;100288.22;5028864;28;20033;-81
2023/02/11 06:38:12;;;;;;;62.25;33.30;;;;;;;2.49;84.18;100274.91;5033995;28;20500;-81
2023/02/11 06:40:37;;;;;;;74.18;37.05;;;;;;;2.44;84.58;100275.41;5046114;28;20056;-83
2023/02/11 06:43:03;;;;;;;64.75;34.05;;;;;;;2.64;83.99;100278.56;5031441;28;21156;-82
2023/02/11 06:45:28;;;;;;;70.72;34.78;;;;;;;2.60;84.50;100296.50;5044280;28;21319;-81
2023/02/11 06:47:53;;;;;;;69.35;34.17;;;;;;;2.55;84.64;100292.72;5049580;28;20032;-81
2023/02/11 06:50:19;;;;;;;71.07;31.20;;;;;;;2.58;84.61;100276.59;5052353;28;20123;-82
2023/02/11 06:52:44;;;;;;;67.70;37.25;;;;;;;2.51;84.54;100286.13;5057231;28;20031;-81
2023/02/11 06:55:10;;;;;;;65.53;35.13;;;;;;;2.57;84.84;100286.28;5039058;28;20055;-82
2023/02/11 06:57:35;;;;;;;65.32;35.88;;;;;;;2.30;85.95;100278.66;5050197;28;20033;-81
2023/02/11 07:00:01;;;;;;;71.80;35.17;;;;;;;2.42;85.77;100295.81;5052918;28;20081;-82
2023/02/11 07:02:26;;;;;;;80.68;38.38;;;;;;;2.24;87.50;100289.81;5052708;28;20110;-82
2023/02/11 07:04:52;;;;;;;74.15;37.35;;;;;;;2.16;87.63;100287.97;5050042;28;20040;-81
2023/02/11 07:07:17;;;;;;;67.68;34.78;;;;;;;2.15;88.52;100290.78;5048055;28;20032;-81
2023/02/11 07:09:43;;;;;;;72.15;36.85;;;;;;;2.26;88.30;100287.84;5022183;28;20029;-81
2023/02/11 07:12:09;;;;;;;63.10;33.53;;;;;;;2.43;87.49;100294.81;5035365;28;20029;-81
2023/02/11 07:14:34;;;;;;;71.15;39.72;;;;;;;2.05;91.10;100303.25;5053190;28;20089;-83
2023/02/11 07:17:00;;;;;;;80.60;42.70;;;;;;;2.00;89.16;100289.72;5048350;28;20041;-82
2023/02/11 07:19:25;;;;;;;81.72;39.72;;;;;;;2.15;88.52;100296.88;5033866;28;20053;-82
2023/02/11 07:21:50;;;;;;;79.25;38.03;;;;;;;2.14;88.64;100289.94;5018227;28;20287;-81
2023/02/11 07:24:16;;;;;;;66.45;35.60;;;;;;;2.31;87.42;100295.28;5037678;28;20028;-81
2023/02/11 07:26:41;;;;;;;80.80;40.13;;;;;;;2.27;88.01;100300.84;5032498;28;20409;-82
2023/02/11 07:29:07;;;;;;;61.47;33.95;;;;;;;2.53;86.43;100298.16;5052425;28;20036;-81
2023/02/11 07:31:32;;;;;;;67.95;34.13;;;;;;;2.39;87.26;100293.50;5040220;28;20031;-81
2023/02/11 07:34:00;;;;;;;61.58;32.63;;;;;;;2.42;86.95;100303.72;5050165;28;20029;-81
2023/02/11 07:36:28;;;;;;;60.22;32.42;;;;;;;2.64;85.62;100313.66;5051636;28;20546;-81
2023/02/11 07:38:53;;;;;;;64.57;32.83;;;;;;;2.70;85.82;100306.91;5047400;28;20037;-82
2023/02/11 07:41:21;;;;;;;61.63;32.70;;;;;;;2.71;85.29;100296.19;5030976;28;20025;-81
2023/02/11 07:43:47;;;;;;;70.30;35.70;;;;;;;2.46;87.49;100315.59;5044295;28;20048;-81
2023/02/11 07:46:24;;;;;;;62.08;31.55;;;;;;;2.53;87.18;100324.50;5042202;28;20324;-82
2023/02/11 07:48:50;;;;;;;72.50;37.28;;;;;;;2.41;89.22;100312.59;5044194;28;20156;-83
2023/02/11 07:51:22;;;;;;;69.45;36.88;;;;;;;2.40;89.90;100333.84;5043193;28;20104;-81
2023/02/11 07:53:47;;;;;;;73.78;37.35;;;;;;;2.34;89.99;100339.75;5034142;28;20090;-82
2023/02/11 07:56:14;;;;;;;72.90;39.08;;;;;;;2.60;87.06;100336.03;5032531;28;20116;-80
2023/02/11 07:58:41;;;;;;;62.53;32.92;;;;;;;2.60;85.79;100328.13;5047384;28;20041;-80
2023/02/11 08:01:10;;;;;;;61.97;33.17;;;;;;;2.82;85.34;100342.50;5046039;28;20029;-81
2023/02/11 08:03:37;;;;;;;60.72;31.13;;;;;;;2.90;84.05;100335.44;5034831;28;20033;-82
2023/02/11 08:06:08;;;;;;;70.05;35.90;;;;;;;2.81;84.98;100336.44;5049898;28;20024;-82
2023/02/11 08:08:34;;;;;;;66.72;35.55;;;;;;;2.89;84.08;100348.78;5050790;28;20032;-82
2023/02/11 08:11:13;;;;;;;66.55;33.58;;;;;;;2.90;84.45;100346.00;5042119;28;20021;-81
2023/02/11 08:13:38;;;;;;;64.80;33.47;;;;;;;2.88;84.46;100341.88;5046503;28;20123;-81
2023/02/11 08:16:04;;;;;;;62.08;34.38;;;;;;;2.79;85.02;100343.66;5040827;28;20127;-81
2023/02/11 08:18:31;;;;;;;64.25;35.88;;;;;;;2.76;84.96;100338.72;5041593;28;20052;-81
2023/02/11 08:21:03;;;;;;;59.70;32.13;;;;;;;3.03;84.86;100346.34;5052487;28;20125;-81
2023/02/11 08:23:28;;;;;;;66.38;33.88;;;;;;;2.86;84.39;100336.75;5044804;28;20051;-81
2023/02/11 08:25:54;;;;;;;71.10;36.78;;;;;;;2.85;84.41;100347.47;5017946;28;20120;-82
2023/02/11 08:28:19;;;;;;;64.05;36.13;;;;;;;2.98;83.55;100348.63;5048971;28;20126;-82
2023/02/11 08:30:44;;;;;;;66.47;35.20;;;;;;;2.96;84.30;100337.44;5056094;28;20037;-81
2023/02/11 08:33:10;;;;;;;72.53;37.83;;;;;;;2.89;85.01;100351.41;5055290;28;20037;-81
2023/02/11 08:35:37;;;;;;;64.75;35.97;;;;;;;3.03;84.39;100345.50;5057827;28;20025;-81
2023/02/11 08:38:03;;;;;;;67.95;38.83;;;;;;;3.07;84.09;100356.56;5050200;28;20128;-81
2023/02/11 08:40:28;;;;;;;71.65;35.53;;;;;;;3.08;85.01;100350.31;5030097;28;20056;-81
2023/02/11 08:42:53;;;;;;;69.05;35.95;;;;;;;3.00;85.39;100335.28;5031962;28;20045;-81
2023/02/11 08:45:19;;;;;;;63.80;34.25;;;;;;;3.08;85.04;100342.38;5018350;28;20029;-81
2023/02/11 08:47:44;;;;;;;59.22;35.08;;;;;;;3.02;86.14;100354.41;5034700;28;20116;-81
2023/02/11 08:50:09;;;;;;;60.90;34.38;;;;;;;3.14;85.63;100353.09;5051804;28;20124;-81
2023/02/11 08:52:35;;;;;;;66.88;36.05;;;;;;;3.09;85.91;100350.13;5027081;28;20036;-81
2023/02/11 08:55:00;;;;;;;75.60;37.83;;;;;;;3.15;86.02;100357.38;5033568;28;20036;-82
2023/02/11 08:57:26;;;;;;;61.63;36.08;;;;;;;3.17;85.50;100349.31;5053282;28;20389;-82
2023/02/11 08:59:51;;;;;;;66.88;37.17;;;;;;;3.17;86.56;100357.25;5038638;28;20048;-82
2023/02/11 09:02:17;;;;;;;63.38;34.80;;;;;;;3.45;83.84;100363.84;5039199;28;20033;-82
2023/02/11 09:04:42;;;;;;;68.07;35.75;;;;;;;3.31;84.44;100367.94;5045269;28;20068;-82
2023/02/11 09:07:07;;;;;;;60.47;34.35;;;;;;;3.20;85.06;100356.88;5042144;28;20064;-82
2023/02/11 09:09:33;;;;;;;68.00;35.75;;;;;;;3.28;84.33;100349.81;5034156;28;20485;-81
2023/02/11 09:12:00;;;;;;;72.00;36.92;;;;;;;3.36;84.74;100367.47;5044721;28;20037;-81
2023/02/11 09:14:25;;;;;;;63.97;34.47;;;;;;;3.31;84.76;100356.56;5052795;28;20060;-82
2023/02/11 09:16:52;;;;;;;53.85;32.33;;;;;;;3.31;85.11;100351.28;5038818;28;20037;-81
2023/02/11 09:19:17;;;;;;;66.53;32.58;;;;;;;3.35;84.69;100361.34;5052107;28;20567;-81
2023/02/11 09:21:43;;;;;;;56.65;31.83;;;;;;;3.33;84.99;100360.69;5050176;28;20021;-81
2023/02/11 09:24:09;;;;;;;60.30;32.40;;;;;;;3.52;84.30;100362.16;5064256;28;20029;-82
2023/02/11 09:26:35;;;;;;;60.30;33.03;;;;;;;3.33;86.09;100371.25;5054379;28;20028;-82
2023/02/11 09:29:02;;;;;;;59.63;31.75;;;;;;;3.28;88.09;100370.91;5064631;28;20025;-82
2023/02/11 09:31:29;;;;;;;61.10;32.15;;;;;;;3.34;87.11;100364.16;5055969;28;20032;-81
2023/02/11 09:33:58;;;;;;;56.13;30.65;;;;;;;3.50;84.98;100356.22;5052296;28;20123;-82
2023/02/11 09:36:27;;;;;;;54.42;28.10;;;;;;;3.52;85.64;100365.63;5039134;28;20029;-83
2023/02/11 09:38:54;;;;;;;54.22;29.67;;;;;;;3.46;85.58;100355.75;5054030;28;20033;-82
2023/02/11 09:41:22;;;;;;;56.45;29.33;;;;;;;3.49;86.95;100368.63;5053585;28;20017;-82
2023/02/11 09:43:51;;;;;;;55.55;31.38;;;;;;;3.50;86.88;100364.16;5048599;28;20029;-82
2023/02/11 09:46:18;;;;;;;62.35;33.92;;;;;;;3.39;86.83;100364.47;5057897;28;20112;-82
2023/02/11 09:48:47;;;;;;;58.03;30.20;;;;;;;3.55;87.03;100369.75;5021175;28;20032;-81
2023/02/11 09:51:24;;;;;;;55.70;30.15;;;;;;;3.54;86.57;100368.09;5050446;28;20031;-82
2023/02/11 09:53:56;;;;;;;56.58;31.00;;;;;;;3.68;86.22;100368.28;5054899;28;20035;-81
2023/02/11 09:56:23;;;;;;;56.45;29.23;;;;;;;3.76;85.55;100370.06;5053912;28;20073;-82
2023/02/11 09:58:49;;;;;;;53.63;30.33;;;;;;;3.77;85.42;100361.16;5051918;28;20048;-82
2023/02/11 10:01:33;;;;;;;55.25;29.23;;;;;;;3.80;86.03;100374.84;5038910;28;20033;-81
2023/02/11 10:04:15;;;;;;;57.13;30.25;;;;;;;3.82;85.67;100379.13;5051669;28;21607;-81
2023/02/11 10:06:48;;;;;;;63.35;32.03;;;;;;;3.76;86.60;100368.25;5051418;28;20029;-82
2023/02/11 10:10:01;;;;;;;50.67;27.70;;;;;;;3.95;85.68;100384.72;5047159;28;20040;-81
2023/02/11 10:12:38;;;;;;;52.28;29.25;;;;;;;3.95;85.19;100393.50;5033332;28;20463;-82
2023/02/11 10:15:31;;;;;;;46.42;28.23;;;;;;;4.14;85.06;100410.78;5059496;28;20056;-82
2023/02/11 10:18:30;;;;;;;47.88;28.58;;;;;;;4.16;84.42;100406.97;5066778;28;20034;-81
2023/02/11 10:21:17;;;;;;;42.38;26.02;;;;;;;4.21;84.72;100406.47;5062942;28;20029;-82
2023/02/11 10:23:50;;;;;;;49.22;26.52;;;;;;;4.10;85.89;100402.38;5050123;28;20060;-82
2023/02/11 10:26:17;;;;;;;46.10;26.90;;;;;;;4.13;84.29;100394.09;5050585;28;20043;-82
2023/02/11 10:28:53;;;;;;;58.75;28.40;;;;;;;4.24;83.97;100399.00;5050209;28;20518;-82
2023/02/11 10:31:24;;;;;;;;;;;;;;;4.22;85.53;100402.81;5053571;28;20037;-81
2023/02/11 10:34:09;;;;;;;49.15;24.05;;;;;;;4.09;84.79;100390.13;5055575;28;19913;-79
2023/02/11 10:36:37;;;;;;;48.10;27.42;;;;;;;4.17;85.73;100413.88;5045782;28;20029;-79
2023/02/11 10:39:18;;;;;;;46.28;24.73;;;;;;;4.13;85.57;100411.78;5049304;28;20033;-80
2023/02/11 10:41:51;;;;;;;53.00;26.77;;;;;;;4.20;85.10;100415.38;5049466;28;20100;-79
2023/02/11 10:44:25;;;;;;;49.88;28.27;;;;;;;4.29;84.82;100409.91;5050136;28;20091;-80
2023/02/11 10:46:53;;;;;;;43.30;26.08;;;;;;;4.25;84.67;100400.66;5048343;28;20040;-79
2023/02/11 10:49:51;;;;;;;49.35;27.08;;;;;;;4.20;85.60;100405.63;5047290;28;20092;-81
2023/02/11 10:52:19;;;;;;;42.17;25.50;;;;;;;4.14;86.13;100406.31;5027238;28;20052;-80
2023/02/11 10:55:08;;;;;;;54.08;27.88;;;;;;;4.18;85.94;100407.63;5054084;28;20036;-81
2023/02/11 10:57:44;;;;;;;48.97;27.45;;;;;;;4.12;86.21;100392.44;5047544;28;20276;-80
2023/02/11 11:00:26;;;;;;;51.22;28.83;;;;;;;4.15;86.67;100397.38;5056980;28;20038;-80
2023/02/11 11:02:54;;;;;;;50.42;27.63;;;;;;;4.16;86.31;100404.31;5050664;28;20424;-81
2023/02/11 11:05:34;;;;;;;48.13;26.10;;;;;;;4.19;86.15;100404.00;5053561;28;20029;-81
2023/02/11 11:08:08;;;;;;;44.63;25.48;;;;;;;4.28;85.75;100416.16;5052482;28;20319;-79
2023/02/11 11:10:42;;;;;;;48.03;27.67;;;;;;;4.24;86.10;100406.09;5050085;28;20037;-80
2023/02/11 11:13:35;;;;;;;56.22;28.58;;;;;;;4.21;85.70;100409.09;5058864;28;20108;-79
2023/02/11 11:16:12;;;;;;;48.65;28.27;;;;;;;4.38;85.64;100411.53;5049595;28;20036;-82
2023/02/11 11:18:43;;;;;;;50.45;27.75;;;;;;;4.37;86.04;100414.31;5042331;28;20030;-79
2023/02/11 11:21:32;;;;;;;45.45;26.10;;;;;;;4.29;86.86;100404.63;5052232;28;20049;-80
2023/02/11 11:24:00;;;;;;;47.67;27.42;;;;;;;4.38;85.41;100403.59;5053961;28;20029;-78
2023/02/11 11:26:44;;;;;;;51.33;27.50;;;;;;;4.36;85.89;100408.25;5045286;28;20025;-79
2023/02/11 11:29:18;;;;;;;47.45;25.52;;;;;;;4.32;86.06;100404.28;5041237;28;20040;-79
2023/02/11 11:31:55;;;;;;;44.53;26.67;;;;;;;4.44;85.68;100404.72;5043906;28;20065;-79